createdAt,value
2023-03-11T00:00:23.037Z,100.00
2023-03-11T00:03:12.592Z,100.00
2023-03-11T00:05:42.321Z,100.00
2023-03-11T00:08:13.813Z,100.00
2023-03-11T00:10:43.271Z,100.00
2023-03-11T00:13:12.902Z,100.00
2023-03-11T00:15:41.335Z,100.00
2023-03-11T00:18:09.279Z,100.00
2023-03-11T00:20:38.833Z,100.00
2023-03-11T00:23:07.597Z,100.00
2023-03-11T00:25:36.778Z,100.00
2023-03-11T00:28:07.244Z,100.00
2023-03-11T00:30:36.251Z,100.00
2023-03-11T00:33:04.497Z,100.00
2023-03-11T00:35:34.693Z,100.00
2023-03-11T00:38:05.178Z,100.00
2023-03-11T00:40:34.041Z,100.00
2023-03-11T00:43:03.876Z,100.00
2023-03-11T00:45:31.921Z,100.00
2023-03-11T00:47:59.962Z,100.00
2023-03-11T00:50:30.081Z,100.00
2023-03-11T00:52:58.260Z,100.00
2023-03-11T00:55:28.644Z,100.00
2023-03-11T00:58:03.359Z,100.00
2023-03-11T01:00:38.339Z,100.00
2023-03-11T01:03:06.431Z,100.00
2023-03-11T01:05:34.394Z,100.00
2023-03-11T01:08:03.542Z,100.00
2023-03-11T01:10:32.020Z,100.00
2023-03-11T01:13:00.093Z,100.00
2023-03-11T01:15:31.673Z,100.00
2023-03-11T01:18:00.699Z,100.00
2023-03-11T01:20:28.823Z,100.00
2023-03-11T01:22:57.133Z,100.00
2023-03-11T01:25:25.377Z,100.00
2023-03-11T01:27:53.458Z,100.00
2023-03-11T01:30:23.149Z,100.00
2023-03-11T01:32:52.634Z,100.00
2023-03-11T01:35:21.870Z,100.00
2023-03-11T01:37:50.246Z,100.00
2023-03-11T01:40:26.640Z,100.00
2023-03-11T01:42:54.816Z,100.00
2023-03-11T01:45:28.959Z,100.00
2023-03-11T01:47:57.125Z,100.00
2023-03-11T01:50:25.807Z,100.00
2023-03-11T01:52:53.874Z,100.00
2023-03-11T01:55:21.882Z,100.00
2023-03-11T01:57:49.961Z,100.00
2023-03-11T02:00:18.363Z,100.00
2023-03-11T02:02:56.049Z,100.00
2023-03-11T02:05:24.640Z,100.00
2023-03-11T02:07:56.095Z,100.00
2023-03-11T02:10:25.893Z,100.00
2023-03-11T02:12:55.429Z,100.00
2023-03-11T02:15:24.546Z,100.00
2023-03-11T02:17:53.724Z,100.00
2023-03-11T02:20:46.849Z,100.00
2023-03-11T02:23:15.328Z,100.00
2023-03-11T02:25:58.351Z,100.00
2023-03-11T02:28:26.274Z,100.00
2023-03-11T02:30:54.377Z,100.00
2023-03-11T02:33:24.971Z,100.00
2023-03-11T02:35:53.094Z,100.00
2023-03-11T02:38:21.119Z,100.00
2023-03-11T02:40:49.938Z,100.00
2023-03-11T02:43:23.498Z,100.00
2023-03-11T02:45:51.860Z,100.00
2023-03-11T02:48:20.908Z,100.00
2023-03-11T02:50:48.918Z,100.00
2023-03-11T02:53:17.411Z,100.00
2023-03-11T02:55:45.551Z,100.00
2023-03-11T02:58:13.525Z,100.00
2023-03-11T03:00:41.556Z,100.00
2023-03-11T03:03:10.821Z,100.00
2023-03-11T03:05:40.063Z,100.00
2023-03-11T03:08:08.120Z,100.00
2023-03-11T03:10:36.093Z,100.00
2023-03-11T03:13:04.412Z,100.00
2023-03-11T03:15:32.537Z,100.00
2023-03-11T03:18:00.932Z,100.00
2023-03-11T03:20:28.973Z,100.00
2023-03-11T03:22:59.051Z,100.00
2023-03-11T03:25:29.402Z,100.00
2023-03-11T03:27:58.063Z,100.00
2023-03-11T03:30:26.987Z,100.00
2023-03-11T03:32:56.256Z,100.00
2023-03-11T03:35:24.386Z,100.00
2023-03-11T03:38:03.039Z,100.00
2023-03-11T03:40:31.201Z,100.00
2023-03-11T03:43:00.126Z,100.00
2023-03-11T03:45:29.161Z,100.00
2023-03-11T03:47:57.341Z,100.00
2023-03-11T03:50:26.197Z,100.00
2023-03-11T03:52:55.383Z,100.00
2023-03-11T03:55:23.449Z,100.00
2023-03-11T03:57:52.091Z,100.00
2023-03-11T04:00:21.185Z,100.00
2023-03-11T04:02:51.532Z,100.00
2023-03-11T04:05:27.133Z,100.00
2023-03-11T04:07:55.534Z,100.00
2023-03-11T04:10:23.586Z,100.00
2023-03-11T04:12:52.093Z,100.00
2023-03-11T04:15:20.270Z,100.00
2023-03-11T04:17:48.414Z,100.00
2023-03-11T04:20:16.815Z,100.00
2023-03-11T04:22:46.191Z,100.00
2023-03-11T04:25:14.393Z,100.00
2023-03-11T04:27:46.121Z,100.00
2023-03-11T04:30:14.641Z,100.00
2023-03-11T04:32:43.729Z,100.00
2023-03-11T04:35:12.344Z,100.00
2023-03-11T04:37:40.693Z,100.00
2023-03-11T04:40:11.053Z,100.00
2023-03-11T04:42:39.254Z,100.00
2023-03-11T04:45:08.182Z,100.00
2023-03-11T04:47:36.489Z,100.00
2023-03-11T04:50:05.466Z,100.00
2023-03-11T04:52:33.686Z,100.00
2023-03-11T04:55:01.620Z,100.00
2023-03-11T04:57:29.710Z,100.00
2023-03-11T04:59:58.134Z,100.00
2023-03-11T05:02:26.183Z,100.00
2023-03-11T05:04:57.903Z,100.00
2023-03-11T05:07:25.957Z,100.00
2023-03-11T05:09:54.101Z,100.00
2023-03-11T05:12:22.196Z,100.00
2023-03-11T05:14:52.258Z,100.00
2023-03-11T05:17:20.752Z,100.00
2023-03-11T05:19:49.389Z,100.00
2023-03-11T05:22:21.662Z,100.00
2023-03-11T05:24:50.082Z,100.00
2023-03-11T05:27:19.955Z,100.00
2023-03-11T05:29:50.287Z,100.00
2023-03-11T05:32:19.629Z,100.00
2023-03-11T05:34:48.495Z,100.00
2023-03-11T05:37:17.665Z,100.00
2023-03-11T05:39:46.476Z,100.00
2023-03-11T05:42:14.618Z,100.00
2023-03-11T05:44:43.063Z,100.00
2023-03-11T05:47:11.225Z,100.00
2023-03-11T05:49:39.345Z,100.00
2023-03-11T05:52:07.438Z,100.00
2023-03-11T05:54:36.516Z,100.00
2023-03-11T05:57:04.835Z,100.00
2023-03-11T05:59:35.548Z,100.00
2023-03-11T06:02:05.420Z,100.00
2023-03-11T06:04:33.646Z,100.00
2023-03-11T06:07:02.383Z,100.00
2023-03-11T06:09:32.457Z,100.00
2023-03-11T06:12:00.634Z,100.00
2023-03-11T06:14:34.383Z,100.00
2023-03-11T06:17:02.377Z,100.00
2023-03-11T06:19:30.338Z,100.00
2023-03-11T06:21:58.409Z,100.00
2023-03-11T06:24:26.372Z,100.00
2023-03-11T06:26:54.568Z,100.00
2023-03-11T06:29:26.686Z,100.00
2023-03-11T06:31:55.457Z,100.00
2023-03-11T06:34:24.129Z,100.00
2023-03-11T06:36:52.740Z,100.00
2023-03-11T06:39:22.809Z,100.00
2023-03-11T06:41:51.313Z,100.00
2023-03-11T06:44:19.825Z,100.00
2023-03-11T06:46:47.927Z,100.00
2023-03-11T06:49:16.214Z,100.00
2023-03-11T06:51:44.401Z,100.00
2023-03-11T06:54:12.807Z,100.00
2023-03-11T06:56:40.822Z,100.00
2023-03-11T06:59:09.421Z,100.00
2023-03-11T07:01:37.545Z,100.00
2023-03-11T07:04:07.339Z,100.00
2023-03-11T07:06:36.294Z,100.00
2023-03-11T07:09:08.471Z,100.00
2023-03-11T07:11:39.301Z,100.00
2023-03-11T07:14:10.722Z,100.00
2023-03-11T07:16:41.959Z,100.00
2023-03-11T07:19:15.731Z,100.00
2023-03-11T07:21:43.669Z,100.00
2023-03-11T07:24:12.729Z,100.00
2023-03-11T07:26:42.074Z,100.00
2023-03-11T07:29:11.979Z,100.00
2023-03-11T07:31:40.193Z,100.00
2023-03-11T07:34:11.625Z,100.00
2023-03-11T07:36:40.455Z,100.00
2023-03-11T07:39:08.516Z,100.00
2023-03-11T07:41:36.724Z,100.00
2023-03-11T07:44:05.071Z,100.00
2023-03-11T07:46:33.295Z,100.00
2023-03-11T07:49:02.381Z,100.00
2023-03-11T07:51:32.356Z,100.00
2023-03-11T07:54:00.521Z,100.00
2023-03-11T07:56:30.577Z,100.00
2023-03-11T07:58:59.357Z,100.00
2023-03-11T08:01:30.852Z,100.00
2023-03-11T08:04:01.081Z,100.00
2023-03-11T08:06:31.439Z,100.00
2023-03-11T08:09:00.023Z,100.00
2023-03-11T08:11:28.327Z,100.00
2023-03-11T08:13:59.083Z,100.00
2023-03-11T08:16:27.348Z,100.00
2023-03-11T08:18:55.356Z,100.00
2023-03-11T08:21:25.205Z,100.00
2023-03-11T08:23:54.694Z,100.00
2023-03-11T08:26:22.718Z,100.00
2023-03-11T08:28:50.765Z,100.00
2023-03-11T08:31:21.033Z,100.00
2023-03-11T08:33:50.103Z,100.00
2023-03-11T08:36:18.924Z,100.00
2023-03-11T08:38:47.211Z,100.00
2023-03-11T08:41:15.681Z,100.00
2023-03-11T08:43:44.705Z,100.00
2023-03-11T08:46:24.100Z,100.00
2023-03-11T08:48:53.136Z,100.00
2023-03-11T08:51:21.529Z,100.00
2023-03-11T08:53:50.160Z,100.00
2023-03-11T08:56:18.751Z,100.00
2023-03-11T08:58:46.984Z,100.00
2023-03-11T09:01:15.314Z,100.00
2023-03-11T09:03:43.336Z,100.00
2023-03-11T09:06:13.916Z,100.00
2023-03-11T09:08:43.373Z,100.00
2023-03-11T09:11:16.062Z,100.00
2023-03-11T09:13:46.552Z,100.00
2023-03-11T09:16:20.933Z,100.00
2023-03-11T09:18:48.929Z,100.00
2023-03-11T09:21:16.886Z,100.00
2023-03-11T09:23:45.042Z,100.00
2023-03-11T09:26:13.197Z,100.00
2023-03-11T09:28:41.674Z,100.00
2023-03-11T09:31:09.804Z,100.00
2023-03-11T09:33:39.249Z,100.00
2023-03-11T09:36:07.872Z,100.00
2023-03-11T09:38:35.799Z,100.00
2023-03-11T09:41:47.899Z,100.00
2023-03-11T09:44:46.271Z,100.00
2023-03-11T09:47:41.056Z,100.00
2023-03-11T09:50:20.002Z,100.00
2023-03-11T09:53:11.889Z,100.00
2023-03-11T09:55:45.140Z,100.00
2023-03-11T09:58:14.365Z,100.00
2023-03-11T10:00:42.543Z,100.00
2023-03-11T10:03:34.580Z,100.00
2023-03-11T10:06:13.359Z,100.00
2023-03-11T10:09:04.230Z,100.00
2023-03-11T10:11:57.218Z,100.00
2023-03-11T10:14:42.940Z,100.00
2023-03-11T10:17:41.124Z,100.00
2023-03-11T10:20:21.995Z,100.00
2023-03-11T10:23:11.101Z,100.00
2023-03-11T10:26:00.271Z,100.00
2023-03-11T10:28:45.274Z,100.00
2023-03-11T10:31:38.360Z,100.00
2023-03-11T10:34:15.724Z,100.00
2023-03-11T10:37:01.981Z,100.00
2023-03-11T10:39:31.528Z,100.00
2023-03-11T10:42:04.267Z,100.00
2023-03-11T10:44:37.564Z,100.00
2023-03-11T10:47:05.979Z,100.00
2023-03-11T10:49:34.009Z,100.00
2023-03-11T10:52:02.056Z,100.00
2023-03-11T10:54:31.937Z,100.00
2023-03-11T10:57:01.750Z,100.00
2023-03-11T10:59:34.109Z,100.00
2023-03-11T11:02:22.514Z,100.00
2023-03-11T11:04:50.480Z,100.00
2023-03-11T11:07:32.585Z,100.00
2023-03-11T11:10:14.097Z,100.00
2023-03-11T11:12:51.071Z,100.00
2023-03-11T11:15:33.048Z,100.00
2023-03-11T11:18:02.822Z,100.00
2023-03-11T11:20:30.945Z,100.00
2023-03-11T11:23:00.900Z,100.00
2023-03-11T11:25:33.788Z,100.00
2023-03-11T11:28:18.708Z,100.00
2023-03-11T11:31:00.425Z,100.00
2023-03-11T11:33:53.119Z,100.00
2023-03-11T11:36:24.376Z,100.00
2023-03-11T11:38:55.626Z,100.00
2023-03-11T11:41:24.565Z,100.00
2023-03-11T11:43:54.135Z,100.00
2023-03-11T11:46:55.392Z,100.00
2023-03-11T11:49:23.560Z,100.00
2023-03-11T11:52:05.409Z,100.00
2023-03-11T11:54:39.125Z,100.00
2023-03-11T11:57:14.962Z,100.00
2023-03-11T11:59:43.556Z,100.00
2023-03-11T12:02:33.873Z,100.00
2023-03-11T12:05:16.690Z,100.00
2023-03-11T12:08:06.934Z,100.00
2023-03-11T12:11:04.743Z,100.00
2023-03-11T12:14:06.284Z,100.00
2023-03-11T12:16:44.669Z,100.00
2023-03-11T12:19:12.581Z,100.00
2023-03-11T12:21:45.794Z,100.00
2023-03-11T12:24:27.978Z,99.84
2023-03-11T12:26:59.269Z,99.10
2023-03-11T12:29:34.133Z,99.38
2023-03-11T12:32:02.300Z,99.26
2023-03-11T12:34:30.314Z,97.33
2023-03-11T12:36:59.831Z,92.70
2023-03-11T12:39:34.147Z,94.63
2023-03-11T12:42:11.322Z,94.44
2023-03-11T12:44:39.882Z,94.52
2023-03-11T12:47:07.765Z,97.23
2023-03-11T12:49:46.501Z,92.41
2023-03-11T12:52:14.418Z,94.54
2023-03-11T12:55:17.449Z,93.58
2023-03-11T12:57:48.389Z,94.09
2023-03-11T13:00:44.870Z,92.56
2023-03-11T13:03:24.789Z,92.09
2023-03-11T13:06:11.583Z,92.48
2023-03-11T13:08:52.667Z,89.75
2023-03-11T13:11:33.182Z,91.08
2023-03-11T13:14:16.487Z,90.28
2023-03-11T13:16:47.476Z,87.28
2023-03-11T13:19:35.387Z,85.78
2023-03-11T13:22:05.466Z,86.91
2023-03-11T13:24:33.321Z,84.95
2023-03-11T13:27:07.276Z,85.96
2023-03-11T13:29:47.765Z,85.14
2023-03-11T13:32:30.960Z,84.40
2023-03-11T13:35:02.030Z,83.62
2023-03-11T13:37:36.742Z,82.39
2023-03-11T13:40:14.171Z,83.36
2023-03-11T13:42:46.944Z,82.57
2023-03-11T13:45:35.800Z,81.93
2023-03-11T13:48:22.659Z,83.48
2023-03-11T13:51:00.909Z,84.15
2023-03-11T13:53:48.225Z,84.10
2023-03-11T13:56:23.273Z,83.06
2023-03-11T13:58:51.235Z,83.10
2023-03-11T14:01:19.205Z,81.28
2023-03-11T14:03:47.764Z,83.30
2023-03-11T14:06:19.479Z,82.43
2023-03-11T14:08:55.289Z,81.69
2023-03-11T14:11:27.787Z,82.11
2023-03-11T14:13:55.694Z,83.21
2023-03-11T14:16:36.415Z,85.29
2023-03-11T14:19:08.919Z,85.19
2023-03-11T14:21:37.053Z,85.85
2023-03-11T14:24:05.232Z,88.90
2023-03-11T14:26:35.192Z,90.43
2023-03-11T14:29:08.996Z,86.89
2023-03-11T14:31:38.516Z,89.74
2023-03-11T14:34:20.396Z,87.90
2023-03-11T14:36:51.116Z,83.10
2023-03-11T14:39:36.354Z,81.39
2023-03-11T14:42:12.514Z,77.06
2023-03-11T14:44:41.540Z,77.88
2023-03-11T14:47:11.402Z,74.20
2023-03-11T14:49:39.685Z,70.63
2023-03-11T14:52:18.932Z,68.60
2023-03-11T14:54:47.018Z,68.10
2023-03-11T14:57:37.931Z,69.31
2023-03-11T15:00:10.153Z,69.31
2023-03-11T15:02:40.505Z,68.48
2023-03-11T15:05:16.720Z,68.98
2023-03-11T15:07:45.238Z,69.93
2023-03-11T15:10:13.618Z,70.21
2023-03-11T15:12:42.796Z,69.31
2023-03-11T15:15:27.036Z,68.43
2023-03-11T15:17:56.650Z,65.22
2023-03-11T15:20:35.548Z,66.55
2023-03-11T15:23:04.977Z,67.02
2023-03-11T15:25:35.207Z,67.31
2023-03-11T15:28:22.274Z,66.89
2023-03-11T15:30:50.255Z,67.60
2023-03-11T15:33:32.821Z,64.07
2023-03-11T15:36:00.954Z,65.70
2023-03-11T15:38:29.108Z,65.37
2023-03-11T15:40:58.693Z,65.74
2023-03-11T15:43:30.898Z,66.08
2023-03-11T15:46:00.368Z,66.00
2023-03-11T15:48:29.984Z,66.24
2023-03-11T15:50:58.870Z,66.57
2023-03-11T15:53:27.687Z,66.16
2023-03-11T15:56:06.950Z,67.60
2023-03-11T15:58:36.715Z,67.19
2023-03-11T16:01:04.866Z,68.16
2023-03-11T16:03:32.962Z,66.97
2023-03-11T16:06:01.044Z,66.66
2023-03-11T16:08:29.094Z,65.99
2023-03-11T16:10:58.182Z,67.77
2023-03-11T16:13:26.211Z,66.72
2023-03-11T16:15:54.343Z,66.68
2023-03-11T16:18:22.335Z,66.67
2023-03-11T16:20:51.107Z,67.06
2023-03-11T16:23:36.185Z,68.61
2023-03-11T16:26:10.613Z,69.03
2023-03-11T16:28:38.792Z,69.63
2023-03-11T16:31:08.857Z,70.90
2023-03-11T16:33:36.941Z,72.68
2023-03-11T16:36:05.444Z,73.52
2023-03-11T16:38:42.139Z,74.48
2023-03-11T16:41:10.169Z,74.92
2023-03-11T16:43:38.076Z,78.49
2023-03-11T16:46:06.070Z,77.43
2023-03-11T16:48:34.234Z,79.44
2023-03-11T16:51:02.353Z,79.63
2023-03-11T16:53:30.341Z,80.20
2023-03-11T16:55:58.383Z,80.98
2023-03-11T16:58:26.448Z,83.86
2023-03-11T17:00:54.498Z,84.54
2023-03-11T17:03:22.430Z,85.93
2023-03-11T17:05:50.461Z,85.68
2023-03-11T17:08:18.581Z,86.58
2023-03-11T17:10:46.884Z,87.22
2023-03-11T17:13:17.762Z,86.68
2023-03-11T17:15:57.491Z,87.59
2023-03-11T17:18:25.672Z,89.04
2023-03-11T17:20:53.765Z,90.01
2023-03-11T17:23:21.709Z,90.27
2023-03-11T17:25:49.776Z,87.77
2023-03-11T17:28:17.888Z,85.96
2023-03-11T17:30:45.907Z,89.06
2023-03-11T17:33:13.910Z,88.93
2023-03-11T17:35:42.065Z,87.51
2023-03-11T17:38:10.348Z,86.82
2023-03-11T17:40:38.418Z,90.90
2023-03-11T17:43:06.380Z,88.87
2023-03-11T17:45:34.396Z,88.08
2023-03-11T17:48:02.419Z,88.73
2023-03-11T17:50:30.593Z,89.32
2023-03-11T17:52:58.824Z,90.09
2023-03-11T17:55:26.757Z,91.58
2023-03-11T17:57:54.737Z,92.11
2023-03-11T18:00:23.152Z,92.24
2023-03-11T18:02:54.155Z,95.54
2023-03-11T18:05:22.401Z,95.64
2023-03-11T18:07:50.523Z,96.73
2023-03-11T18:10:18.621Z,97.94
2023-03-11T18:12:46.732Z,98.02
2023-03-11T18:15:19.076Z,99.57
2023-03-11T18:17:47.270Z,99.55
2023-03-11T18:20:15.704Z,100.00
2023-03-11T18:22:46.708Z,100.00
2023-03-11T18:25:15.982Z,100.00
2023-03-11T18:27:44.775Z,100.00
2023-03-11T18:30:13.324Z,100.00
2023-03-11T18:32:42.154Z,100.00
2023-03-11T18:35:11.106Z,100.00
2023-03-11T18:37:39.338Z,100.00
2023-03-11T18:40:07.951Z,100.00
2023-03-11T18:42:35.864Z,100.00
2023-03-11T18:45:04.372Z,100.00
2023-03-11T18:47:35.556Z,100.00
2023-03-11T18:50:04.891Z,100.00
2023-03-11T18:52:33.505Z,100.00
2023-03-11T18:55:01.649Z,100.00
2023-03-11T18:57:31.865Z,100.00
2023-03-11T19:00:00.122Z,100.00
2023-03-11T19:02:28.303Z,100.00
2023-03-11T19:04:56.676Z,100.00
2023-03-11T19:07:24.911Z,100.00
2023-03-11T19:09:53.616Z,100.00
2023-03-11T19:12:21.823Z,100.00
2023-03-11T19:14:51.874Z,100.00
2023-03-11T19:17:19.924Z,100.00
2023-03-11T19:19:50.544Z,100.00
2023-03-11T19:22:18.699Z,100.00
2023-03-11T19:24:46.681Z,100.00
2023-03-11T19:27:14.691Z,100.00
2023-03-11T19:29:42.680Z,100.00
2023-03-11T19:32:10.715Z,99.71
2023-03-11T19:34:40.961Z,97.92
2023-03-11T19:37:08.902Z,96.19
2023-03-11T19:39:37.380Z,95.70
2023-03-11T19:42:05.996Z,95.76
2023-03-11T19:44:34.254Z,96.70
2023-03-11T19:47:06.459Z,98.67
2023-03-11T19:49:34.792Z,97.19
2023-03-11T19:52:02.871Z,96.41
2023-03-11T19:54:31.026Z,95.97
2023-03-11T19:57:00.396Z,95.86
2023-03-11T19:59:28.472Z,95.94
2023-03-11T20:01:57.060Z,95.91
2023-03-11T20:04:25.324Z,97.81
2023-03-11T20:06:53.412Z,96.70
2023-03-11T20:09:21.644Z,97.27
2023-03-11T20:11:49.703Z,97.10
2023-03-11T20:14:17.923Z,96.85
2023-03-11T20:16:48.229Z,96.96
2023-03-11T20:19:16.484Z,98.20
2023-03-11T20:21:45.936Z,98.99
2023-03-11T20:24:14.603Z,99.31
2023-03-11T20:26:42.718Z,100.00
2023-03-11T20:29:10.753Z,100.00
2023-03-11T20:31:39.570Z,100.00
2023-03-11T20:34:11.325Z,100.00
2023-03-11T20:36:40.050Z,100.00
2023-03-11T20:39:10.462Z,100.00
2023-03-11T20:41:40.825Z,100.00
2023-03-11T20:44:09.315Z,100.00
2023-03-11T20:46:37.423Z,100.00
2023-03-11T20:49:05.464Z,100.00
2023-03-11T20:51:33.532Z,100.00
2023-03-11T20:54:01.887Z,100.00
2023-03-11T20:56:30.051Z,100.00
2023-03-11T20:58:59.586Z,100.00
2023-03-11T21:01:32.271Z,100.00
2023-03-11T21:04:02.078Z,100.00
2023-03-11T21:06:35.774Z,100.00
2023-03-11T21:09:06.617Z,100.00
2023-03-11T21:11:34.692Z,100.00
2023-03-11T21:14:02.926Z,100.00
2023-03-11T21:16:31.158Z,100.00
2023-03-11T21:19:01.581Z,100.00
2023-03-11T21:21:30.671Z,100.00
2023-03-11T21:23:58.651Z,100.00
2023-03-11T21:26:26.785Z,100.00
2023-03-11T21:28:55.458Z,100.00
2023-03-11T21:31:27.068Z,100.00
2023-03-11T21:33:57.890Z,100.00
2023-03-11T21:36:27.235Z,100.00
2023-03-11T21:38:55.945Z,100.00
2023-03-11T21:41:25.220Z,100.00
2023-03-11T21:43:54.129Z,100.00
2023-03-11T21:46:24.837Z,100.00
2023-03-11T21:48:52.944Z,100.00
2023-03-11T21:51:21.360Z,100.00
2023-03-11T21:53:49.750Z,100.00
2023-03-11T21:56:18.054Z,100.00
2023-03-11T21:58:46.754Z,100.00
2023-03-11T22:01:14.950Z,100.00
2023-03-11T22:03:44.008Z,100.00
2023-03-11T22:06:12.638Z,100.00
2023-03-11T22:08:41.755Z,100.00
2023-03-11T22:11:11.011Z,100.00
2023-03-11T22:13:38.993Z,100.00
2023-03-11T22:16:07.289Z,100.00
2023-03-11T22:18:36.858Z,100.00
2023-03-11T22:21:05.562Z,100.00
2023-03-11T22:23:34.534Z,100.00
2023-03-11T22:26:02.857Z,100.00
2023-03-11T22:28:30.918Z,100.00
2023-03-11T22:30:58.990Z,100.00
2023-03-11T22:33:26.992Z,100.00
2023-03-11T22:35:56.763Z,100.00
2023-03-11T22:38:24.816Z,100.00
2023-03-11T22:40:52.787Z,100.00
2023-03-11T22:43:20.778Z,100.00
2023-03-11T22:45:48.842Z,100.00
2023-03-11T22:48:16.786Z,100.00
2023-03-11T22:50:44.938Z,100.00
2023-03-11T22:53:13.215Z,100.00
2023-03-11T22:55:44.435Z,100.00
2023-03-11T22:58:12.699Z,100.00
2023-03-11T23:00:40.698Z,100.00
2023-03-11T23:03:09.662Z,100.00
2023-03-11T23:05:42.298Z,100.00
2023-03-11T23:08:17.730Z,100.00
2023-03-11T23:10:46.630Z,100.00
2023-03-11T23:13:14.761Z,100.00
2023-03-11T23:15:44.569Z,100.00
2023-03-11T23:18:12.862Z,100.00
2023-03-11T23:20:41.420Z,100.00
2023-03-11T23:23:09.408Z,100.00
2023-03-11T23:25:37.411Z,100.00
2023-03-11T23:28:06.647Z,100.00
2023-03-11T23:30:34.787Z,100.00
2023-03-11T23:33:03.159Z,100.00
2023-03-11T23:35:31.584Z,100.00
2023-03-11T23:37:59.742Z,100.00
2023-03-11T23:40:27.920Z,100.00
2023-03-11T23:42:55.888Z,100.00
2023-03-11T23:45:23.854Z,100.00
2023-03-11T23:47:51.880Z,100.00
2023-03-11T23:50:19.896Z,100.00
2023-03-11T23:52:47.875Z,100.00
2023-03-11T23:55:15.896Z,100.00
2023-03-11T23:57:43.799Z,100.00
